LOXT

Brumowski Air Base

Airport
ICAO code
LOXT
Summary
ICAO Region
EUR
ICAO Territory
Location

Tulln, Lower Austria

Serving
Tulln
Elevation
594 ft
Coordinates
48° 19' 8" N , 16° 6' 52" E
KCC
Metar
Observation
LOXT 280350Z 12010KT 10KM OVC010ST 04/02 Q1019 RMK WIND INFO EST/OVC
Station
Tulln
Date/Time
2022-11-28 03:50:00
Wind direction
120°
Wind speed
10 kts
Lowest cloud amount
overcast
Temperature
4°C
Dew point
2°C
Humidity
86%
QNH
1019 hPa
Weather condition
n/a

Fliegerhorst Brumowski (Brumowski Air Base) is an Austrian Air Force base located approximately 3nm east-southeast of Tulln; about 30 km (19 mi) northwest of Vienna.

Climatology

Humid continental climate (Köppen climate classification Dfb)

Airport map

Aerial View

SKYbrary Partners:

Safety knowledge contributed by: